YTA weather

Pembroke Airport
Pembroke, Ontario, Canada

Public forecast

Using degrees Celsius for public forecast. Weather courtesy of forecast.io.

METAR (pilot weather report)

Closest report is Petawawa Airport, 6.0 nm (11.1 km) NNW. Retrieved 2019/03/25 13:00 UTC (27 minutes ago):

CYWA 251300Z AUTO 36003KT 9SM CLR M10/M19 A3021 RMK SLP241

TAF (pilot weather forecast)

Closest forecast is Petawawa Airport, 6.0 nm (11.1 km) NNW. Retrieved 2019/03/25 12:33 UTC (54 minutes ago):

TAF CYWA 251130Z 2512/2524 VRB03KT P6SM SKC BECMG 2514/2516 30010G20KT RMK FCST BASED ON AUTO OBS. NXT FCST BY 251800Z